Jask, Iran
Current Conditions -  °F | °C
As of 12:00 AM on Saturday 25 Oct 2014 (Local Time) from OIZJ Reporting Station
Clear Clear  
Wind Chill: 28°   Ceiling: Unl
Heat Index: 31°   Visibility: 5mi
Dew Point: 22°   Wind: 7mph
Humidity: 70%   Direction: 310°NW
Pressure: 29.8"   Gusts: NA
Location:  25.65°N, 57.78°E
Report Text: OIZJ 242100Z 31006KT 8000 SKC 28/22 Q1009
Loading
Personal Weather Stations






























Interactive Weather Map
Tropical Storm Tracking
New forecast layout! Learn more

10-Day Weather Forecast

Advertisements
Track Severe Weather on mobile